Crew | Aerofun Virtual



 METAR AND TAF INFORMATION
METAR FOR EFKE
ADDS - METARS form results

(1935 UTC 21 July 2019)
Data provider http://aviationweather.gov/metar/data/
 
METAR text: EFKE 211920Z AUTO VRB01KT CAVOK 16/12 Q1016
Conditions at: EFKE (KEMI , FI) observed 1920 UTC 21 July 2019
Temperature: 16.0°C (61°F)
Dewpoint: 12.0°C (54°F) [RH = 77%]
Pressure (altimeter): 30.00 inches Hg (1016.0 mb)
Winds: variable direction winds at 1 MPH (1 knots; 0.5 m/s)
Visibility: 6 or more miles (10+ km)
Ceiling: ceiling and visibility are OK
Clouds: unknown
Weather: no significant weather observed at this time

METAR text: EFKE 211850Z AUTO VRB01KT CAVOK 17/13 Q1016
Conditions at: EFKE (KEMI , FI) observed 1850 UTC 21 July 2019
Temperature: 17.0°C (63°F)
Dewpoint: 13.0°C (55°F) [RH = 77%]
Pressure (altimeter): 30.00 inches Hg (1016.0 mb)
Winds: variable direction winds at 1 MPH (1 knots; 0.5 m/s)
Visibility: 6 or more miles (10+ km)
Ceiling: ceiling and visibility are OK
Clouds: unknown
Weather: no significant weather observed at this time

Forecast for: EFKE (KEMI , FI)
Text: TAF EFKE 211431Z 2115/2118 21008KT CAVOK
Forecast period: 1500 to 1800 UTC 21 July 2019
Forecast type: FROM: standard forecast or significant change
Winds: from the SSW (210 degrees) at 9 MPH (8 knots; 4.1 m/s)
Visibility: 6 or more miles 10+ km)
Ceiling: unknown
Clouds: missing
Weather: NSW  (no significant weather)

 AIRPORT MAP

 RUNWAY INFORMATION
Runway 18 Runway length 8212 ft Runway width 157 ft
Runway elevation 48 ft Runway displaced threshold 0 ft Runway heading 188
Runway 36 Runway length 8212 ft Runway width 157 ft
Runway elevation 31 ft Runway displaced threshold 0 ft Runway heading 8

 AIRPORT FREQUENCIES
Type ATIS Name ATIS Frequency 123.15 MHZ
Type TWR Name TWR Frequency 119.4 MHZ

 AIRPORT NEAR NAVIGATION AIDS
Type NDB Name Kemi Frequency 373 KHZ